Pagrindinis puslapis
METAR-TAF:

METAR-TAF

Oro uostai :

Phrė, Tailandas

platuma: 18-10N, ilguma: 100-10E, Aukštis: 161 m

Dabartinis oras

Ataskaita buvo paskelbta 8 valandos ir 37 minutes, ne 11:00 UTC
Vėjas 4 kt iš Pietų/Pietvakarių
Temperatūra 30°C
Drėgmė 75%
Slėgis 1003 hPa
Matomumas 10 km arba daugiau
Mažai debesys ne aukštis 2200 ft

METAR: VTCP 301100Z 20004KT 9999 FEW022 30/25 Q1003 NOSIG

Laikas: 02:37 (19:37 UTC)

Prognozė

Ataskaita buvo paskelbta 2 valandos ir 37 minutes, ne 17:00 UTC
Prognozė galioja nuo 30 metu 18 UTC su 01 metu 18 UTC
Vėjas 5 kt iš Pietvakarių
Matomumas 10 km arba daugiau
Išsisklaidę debesys ne aukštis 2500 ft
Laikinai
nuo 01 metu 06 UTC su 01 metu 12 UTC
Vėjas 15 kt iš Pietų su gūsio iki 25 kt
Matomumas: 4000 m
Mažai debesys ne aukštis 2500 ft, Liūtiniai kamuoliniai debesys.
Su prošvaistėmis ne aukštis 3500 ft
perkūnija, lietus

TAF: VTCP 301700Z 3018/0118 22005KT 9999 SCT025 TEMPO 0106/0112 18015G25KT 4000 TSRA FEW025CB BKN035

Orai ataskaitas ir orų prognozės (METAR, TAF).

turimą stotys yra geltonos ir raudonos taškus žemėlapyje.

Perkelti pele per norėdami pamatyti stoties vardą.

Tada spustelėkite, norėdami matyti oro stebėjimo ir prognozės.

Norėdami pakeisti žemėlapį: spustelėkite ant žalios mygtukų su juodo kryžiaus žemyn,; žalią mygtuką su brūkšneliu, jei norite nutolinti; arba žalių rodyklių gretimoms žemėlapius.


METAR-TAF: